Mitchell City, Louisiana
Current Conditions -  °F | °C
As of 4:53 PM on Wednesday 26 Nov 2014 (Local Time) from KASD Reporting Station
Clear Clear  
Wind Chill: 62°   Ceiling: Unl
Heat Index: 62°   Visibility: 10mi
Dew Point: 41°   Wind: 3mph
Humidity: 46%   Direction: 210°SSW
Pressure: 30.16"   Gusts: NA
Location:  30.7419°N, 89.8828°W
Report Text: KASD 262253Z AUTO 21003KT 10SM CLR 17/05 A3016 RMK AO2 SLP214 T01670050
Loading
Personal Weather Stations






























Interactive Weather Map New forecast layout! Learn more

10-Day Weather Forecast

Advertisements
Track Severe Weather on mobile